sensor_id;sensor_type;location;lat;lon;timestamp;P1;durP1;ratioP1;P2;durP2;ratioP2
39502;SDS011;26970;49.900;10.774;2024-01-06T00:01:36;11.38;;;6.57;;
39502;SDS011;26970;49.900;10.774;2024-01-06T00:04:01;12.63;;;6.40;;
39502;SDS011;26970;49.900;10.774;2024-01-06T00:06:27;11.93;;;6.65;;
39502;SDS011;26970;49.900;10.774;2024-01-06T00:08:52;11.07;;;6.35;;
39502;SDS011;26970;49.900;10.774;2024-01-06T00:11:20;12.25;;;6.85;;
39502;SDS011;26970;49.900;10.774;2024-01-06T00:13:46;12.20;;;6.65;;
39502;SDS011;26970;49.900;10.774;2024-01-06T00:16:11;12.18;;;7.15;;
39502;SDS011;26970;49.900;10.774;2024-01-06T00:18:37;12.27;;;6.30;;
39502;SDS011;26970;49.900;10.774;2024-01-06T00:21:03;11.75;;;5.55;;
39502;SDS011;26970;49.900;10.774;2024-01-06T00:23:29;14.48;;;5.97;;
39502;SDS011;26970;49.900;10.774;2024-01-06T00:25:54;8.15;;;5.10;;
39502;SDS011;26970;49.900;10.774;2024-01-06T00:28:21;7.95;;;4.93;;
39502;SDS011;26970;49.900;10.774;2024-01-06T00:30:46;8.65;;;5.13;;
39502;SDS011;26970;49.900;10.774;2024-01-06T00:33:12;12.38;;;5.70;;
39502;SDS011;26970;49.900;10.774;2024-01-06T00:35:37;10.38;;;5.60;;
39502;SDS011;26970;49.900;10.774;2024-01-06T00:38:03;13.68;;;5.13;;
39502;SDS011;26970;49.900;10.774;2024-01-06T00:40:28;15.05;;;8.25;;
39502;SDS011;26970;49.900;10.774;2024-01-06T00:42:54;11.10;;;5.78;;
39502;SDS011;26970;49.900;10.774;2024-01-06T00:45:19;11.20;;;6.18;;
39502;SDS011;26970;49.900;10.774;2024-01-06T00:47:45;13.00;;;6.57;;
39502;SDS011;26970;49.900;10.774;2024-01-06T00:50:11;13.40;;;7.10;;
39502;SDS011;26970;49.900;10.774;2024-01-06T00:52:37;11.75;;;6.15;;
39502;SDS011;26970;49.900;10.774;2024-01-06T00:55:02;12.70;;;6.70;;
39502;SDS011;26970;49.900;10.774;2024-01-06T00:57:28;12.88;;;6.50;;
39502;SDS011;26970;49.900;10.774;2024-01-06T00:59:53;9.27;;;5.85;;
39502;SDS011;26970;49.900;10.774;2024-01-06T01:02:19;10.85;;;6.30;;
39502;SDS011;26970;49.900;10.774;2024-01-06T01:04:44;10.07;;;6.45;;
39502;SDS011;26970;49.900;10.774;2024-01-06T01:07:10;12.18;;;5.90;;
39502;SDS011;26970;49.900;10.774;2024-01-06T01:09:37;11.52;;;6.63;;
39502;SDS011;26970;49.900;10.774;2024-01-06T01:12:02;12.85;;;6.38;;
39502;SDS011;26970;49.900;10.774;2024-01-06T01:14:28;13.60;;;6.63;;
39502;SDS011;26970;49.900;10.774;2024-01-06T01:16:53;12.20;;;6.25;;
39502;SDS011;26970;49.900;10.774;2024-01-06T01:25:55;10.90;;;6.13;;
39502;SDS011;26970;49.900;10.774;2024-01-06T01:28:21;11.77;;;6.88;;
39502;SDS011;26970;49.900;10.774;2024-01-06T01:30:47;16.15;;;6.93;;
39502;SDS011;26970;49.900;10.774;2024-01-06T01:33:12;10.77;;;6.45;;
39502;SDS011;26970;49.900;10.774;2024-01-06T01:35:38;11.13;;;6.50;;
39502;SDS011;26970;49.900;10.774;2024-01-06T01:38:03;9.20;;;6.03;;
39502;SDS011;26970;49.900;10.774;2024-01-06T01:40:29;16.08;;;6.20;;
39502;SDS011;26970;49.900;10.774;2024-01-06T01:42:54;13.50;;;6.30;;
39502;SDS011;26970;49.900;10.774;2024-01-06T01:45:20;17.17;;;6.28;;
39502;SDS011;26970;49.900;10.774;2024-01-06T01:47:45;10.32;;;6.35;;
39502;SDS011;26970;49.900;10.774;2024-01-06T01:50:11;13.07;;;6.60;;
39502;SDS011;26970;49.900;10.774;2024-01-06T01:52:39;12.82;;;6.53;;
39502;SDS011;26970;49.900;10.774;2024-01-06T01:55:06;10.75;;;6.15;;
39502;SDS011;26970;49.900;10.774;2024-01-06T01:57:32;14.23;;;6.25;;
39502;SDS011;26970;49.900;10.774;2024-01-06T01:59:57;11.40;;;6.70;;
39502;SDS011;26970;49.900;10.774;2024-01-06T02:02:26;15.20;;;6.38;;
39502;SDS011;26970;49.900;10.774;2024-01-06T02:04:53;12.88;;;7.00;;
39502;SDS011;26970;49.900;10.774;2024-01-06T02:07:19;11.68;;;6.68;;
39502;SDS011;26970;49.900;10.774;2024-01-06T02:09:45;10.75;;;6.00;;
39502;SDS011;26970;49.900;10.774;2024-01-06T02:12:10;11.65;;;6.05;;
39502;SDS011;26970;49.900;10.774;2024-01-06T02:14:36;11.10;;;6.70;;
39502;SDS011;26970;49.900;10.774;2024-01-06T02:17:02;9.98;;;5.95;;
39502;SDS011;26970;49.900;10.774;2024-01-06T02:19:27;10.82;;;6.43;;
39502;SDS011;26970;49.900;10.774;2024-01-06T02:21:53;12.40;;;6.15;;
39502;SDS011;26970;49.900;10.774;2024-01-06T02:24:18;9.82;;;5.90;;
39502;SDS011;26970;49.900;10.774;2024-01-06T02:26:44;10.43;;;5.97;;
39502;SDS011;26970;49.900;10.774;2024-01-06T02:29:10;9.57;;;5.88;;
39502;SDS011;26970;49.900;10.774;2024-01-06T02:31:35;12.85;;;6.05;;
39502;SDS011;26970;49.900;10.774;2024-01-06T02:34:01;12.77;;;6.32;;
39502;SDS011;26970;49.900;10.774;2024-01-06T02:36:26;8.25;;;5.35;;
39502;SDS011;26970;49.900;10.774;2024-01-06T02:38:52;14.52;;;5.53;;
39502;SDS011;26970;49.900;10.774;2024-01-06T02:41:17;10.85;;;5.68;;
39502;SDS011;26970;49.900;10.774;2024-01-06T02:43:43;11.55;;;5.75;;
39502;SDS011;26970;49.900;10.774;2024-01-06T02:46:09;11.73;;;5.43;;
39502;SDS011;26970;49.900;10.774;2024-01-06T02:48:34;10.43;;;5.75;;
39502;SDS011;26970;49.900;10.774;2024-01-06T02:51:00;9.13;;;5.55;;
39502;SDS011;26970;49.900;10.774;2024-01-06T02:53:25;8.57;;;5.00;;
39502;SDS011;26970;49.900;10.774;2024-01-06T02:55:50;10.63;;;6.18;;
39502;SDS011;26970;49.900;10.774;2024-01-06T02:58:16;9.13;;;5.75;;
39502;SDS011;26970;49.900;10.774;2024-01-06T03:00:41;8.40;;;4.68;;
39502;SDS011;26970;49.900;10.774;2024-01-06T03:03:07;8.30;;;5.10;;
39502;SDS011;26970;49.900;10.774;2024-01-06T03:05:32;8.40;;;4.70;;
39502;SDS011;26970;49.900;10.774;2024-01-06T03:07:58;13.15;;;4.55;;
39502;SDS011;26970;49.900;10.774;2024-01-06T03:10:23;9.50;;;5.32;;
39502;SDS011;26970;49.900;10.774;2024-01-06T03:12:49;8.07;;;4.72;;
39502;SDS011;26970;49.900;10.774;2024-01-06T03:15:14;8.90;;;5.72;;
39502;SDS011;26970;49.900;10.774;2024-01-06T03:17:40;10.35;;;4.75;;
39502;SDS011;26970;49.900;10.774;2024-01-06T03:20:06;12.32;;;5.43;;
39502;SDS011;26970;49.900;10.774;2024-01-06T03:22:32;8.95;;;4.68;;
39502;SDS011;26970;49.900;10.774;2024-01-06T03:24:58;9.77;;;5.13;;
39502;SDS011;26970;49.900;10.774;2024-01-06T03:27:23;13.23;;;5.28;;
39502;SDS011;26970;49.900;10.774;2024-01-06T03:29:49;9.35;;;4.70;;
39502;SDS011;26970;49.900;10.774;2024-01-06T03:32:15;9.90;;;5.50;;
39502;SDS011;26970;49.900;10.774;2024-01-06T03:34:40;10.00;;;4.82;;
39502;SDS011;26970;49.900;10.774;2024-01-06T03:37:06;13.02;;;5.15;;
39502;SDS011;26970;49.900;10.774;2024-01-06T03:39:31;8.13;;;4.93;;
39502;SDS011;26970;49.900;10.774;2024-01-06T03:41:57;15.40;;;4.55;;
39502;SDS011;26970;49.900;10.774;2024-01-06T03:44:22;9.38;;;4.75;;
39502;SDS011;26970;49.900;10.774;2024-01-06T03:46:48;7.85;;;4.40;;
39502;SDS011;26970;49.900;10.774;2024-01-06T03:49:13;8.10;;;4.45;;
39502;SDS011;26970;49.900;10.774;2024-01-06T03:51:39;8.57;;;4.55;;
39502;SDS011;26970;49.900;10.774;2024-01-06T03:54:05;8.52;;;4.70;;
39502;SDS011;26970;49.900;10.774;2024-01-06T03:56:30;8.88;;;4.35;;
39502;SDS011;26970;49.900;10.774;2024-01-06T03:58:56;9.52;;;5.10;;
39502;SDS011;26970;49.900;10.774;2024-01-06T04:01:21;8.57;;;4.53;;
39502;SDS011;26970;49.900;10.774;2024-01-06T04:03:47;8.88;;;4.80;;
39502;SDS011;26970;49.900;10.774;2024-01-06T04:06:12;8.13;;;4.68;;
39502;SDS011;26970;49.900;10.774;2024-01-06T04:08:39;7.38;;;4.47;;
39502;SDS011;26970;49.900;10.774;2024-01-06T04:11:07;7.55;;;4.55;;
39502;SDS011;26970;49.900;10.774;2024-01-06T04:13:33;9.48;;;4.95;;
39502;SDS011;26970;49.900;10.774;2024-01-06T04:15:58;8.77;;;5.32;;
39502;SDS011;26970;49.900;10.774;2024-01-06T04:18:24;9.48;;;5.15;;
39502;SDS011;26970;49.900;10.774;2024-01-06T04:20:49;10.00;;;5.25;;
39502;SDS011;26970;49.900;10.774;2024-01-06T04:23:15;8.52;;;4.95;;
39502;SDS011;26970;49.900;10.774;2024-01-06T04:25:40;7.97;;;4.80;;
39502;SDS011;26970;49.900;10.774;2024-01-06T04:28:06;11.95;;;4.65;;
39502;SDS011;26970;49.900;10.774;2024-01-06T04:30:32;7.90;;;4.25;;
39502;SDS011;26970;49.900;10.774;2024-01-06T04:32:57;10.27;;;4.63;;
39502;SDS011;26970;49.900;10.774;2024-01-06T04:35:23;7.80;;;4.47;;
39502;SDS011;26970;49.900;10.774;2024-01-06T04:37:50;8.23;;;4.03;;
39502;SDS011;26970;49.900;10.774;2024-01-06T04:40:15;7.80;;;4.38;;
39502;SDS011;26970;49.900;10.774;2024-01-06T04:42:41;8.65;;;4.10;;
39502;SDS011;26970;49.900;10.774;2024-01-06T04:45:07;5.65;;;3.58;;
39502;SDS011;26970;49.900;10.774;2024-01-06T04:47:33;8.13;;;4.85;;
39502;SDS011;26970;49.900;10.774;2024-01-06T04:49:59;7.43;;;3.88;;
39502;SDS011;26970;49.900;10.774;2024-01-06T04:52:24;7.85;;;4.22;;
39502;SDS011;26970;49.900;10.774;2024-01-06T04:54:49;8.45;;;3.92;;
39502;SDS011;26970;49.900;10.774;2024-01-06T04:57:15;12.30;;;4.20;;
39502;SDS011;26970;49.900;10.774;2024-01-06T04:59:41;8.55;;;3.80;;
39502;SDS011;26970;49.900;10.774;2024-01-06T05:02:06;8.45;;;3.28;;
39502;SDS011;26970;49.900;10.774;2024-01-06T05:04:32;8.30;;;3.58;;
39502;SDS011;26970;49.900;10.774;2024-01-06T05:06:58;5.93;;;3.65;;
39502;SDS011;26970;49.900;10.774;2024-01-06T05:09:24;6.38;;;3.30;;
39502;SDS011;26970;49.900;10.774;2024-01-06T05:11:50;9.77;;;3.60;;
39502;SDS011;26970;49.900;10.774;2024-01-06T05:14:15;10.23;;;3.15;;
39502;SDS011;26970;49.900;10.774;2024-01-06T05:16:41;7.03;;;3.22;;
39502;SDS011;26970;49.900;10.774;2024-01-06T05:19:07;8.50;;;3.65;;
39502;SDS011;26970;49.900;10.774;2024-01-06T05:21:33;5.60;;;3.33;;
39502;SDS011;26970;49.900;10.774;2024-01-06T05:23:59;5.93;;;3.38;;
39502;SDS011;26970;49.900;10.774;2024-01-06T05:26:25;7.82;;;3.67;;
39502;SDS011;26970;49.900;10.774;2024-01-06T05:28:51;9.60;;;3.38;;
39502;SDS011;26970;49.900;10.774;2024-01-06T05:31:17;8.85;;;3.50;;
39502;SDS011;26970;49.900;10.774;2024-01-06T05:33:43;9.93;;;3.83;;
39502;SDS011;26970;49.900;10.774;2024-01-06T05:36:08;7.10;;;4.05;;
39502;SDS011;26970;49.900;10.774;2024-01-06T05:38:34;6.40;;;3.42;;
39502;SDS011;26970;49.900;10.774;2024-01-06T05:41:01;6.85;;;3.40;;
39502;SDS011;26970;49.900;10.774;2024-01-06T05:43:27;13.18;;;3.55;;
39502;SDS011;26970;49.900;10.774;2024-01-06T05:45:52;6.40;;;3.78;;
39502;SDS011;26970;49.900;10.774;2024-01-06T05:48:18;11.07;;;4.15;;
39502;SDS011;26970;49.900;10.774;2024-01-06T05:50:43;8.90;;;3.67;;
39502;SDS011;26970;49.900;10.774;2024-01-06T05:53:09;7.47;;;3.85;;
39502;SDS011;26970;49.900;10.774;2024-01-06T05:55:35;12.00;;;4.40;;
39502;SDS011;26970;49.900;10.774;2024-01-06T05:58:01;9.07;;;4.28;;
39502;SDS011;26970;49.900;10.774;2024-01-06T06:00:27;5.78;;;4.13;;
39502;SDS011;26970;49.900;10.774;2024-01-06T06:02:52;9.93;;;4.22;;
39502;SDS011;26970;49.900;10.774;2024-01-06T06:05:18;6.50;;;3.95;;
39502;SDS011;26970;49.900;10.774;2024-01-06T06:07:45;7.13;;;3.92;;
39502;SDS011;26970;49.900;10.774;2024-01-06T06:10:10;8.30;;;4.20;;
39502;SDS011;26970;49.900;10.774;2024-01-06T06:12:36;8.52;;;3.85;;
39502;SDS011;26970;49.900;10.774;2024-01-06T06:15:05;10.00;;;4.32;;
39502;SDS011;26970;49.900;10.774;2024-01-06T06:17:31;7.38;;;3.97;;
39502;SDS011;26970;49.900;10.774;2024-01-06T06:19:57;8.10;;;4.05;;
39502;SDS011;26970;49.900;10.774;2024-01-06T06:22:23;10.63;;;4.45;;
39502;SDS011;26970;49.900;10.774;2024-01-06T06:24:51;6.53;;;3.80;;
39502;SDS011;26970;49.900;10.774;2024-01-06T06:27:17;6.93;;;3.75;;
39502;SDS011;26970;49.900;10.774;2024-01-06T06:29:42;10.55;;;3.90;;
39502;SDS011;26970;49.900;10.774;2024-01-06T06:32:08;6.88;;;3.58;;
39502;SDS011;26970;49.900;10.774;2024-01-06T06:34:34;10.40;;;4.10;;
39502;SDS011;26970;49.900;10.774;2024-01-06T06:36:59;7.35;;;3.65;;
39502;SDS011;26970;49.900;10.774;2024-01-06T06:39:25;7.75;;;3.47;;
39502;SDS011;26970;49.900;10.774;2024-01-06T06:41:52;7.32;;;3.70;;
39502;SDS011;26970;49.900;10.774;2024-01-06T06:44:17;7.13;;;3.50;;
39502;SDS011;26970;49.900;10.774;2024-01-06T06:46:43;8.55;;;3.95;;
39502;SDS011;26970;49.900;10.774;2024-01-06T06:49:08;7.55;;;3.45;;
39502;SDS011;26970;49.900;10.774;2024-01-06T06:51:34;6.55;;;3.63;;
39502;SDS011;26970;49.900;10.774;2024-01-06T06:53:59;6.35;;;3.63;;
39502;SDS011;26970;49.900;10.774;2024-01-06T06:56:25;11.35;;;4.05;;
39502;SDS011;26970;49.900;10.774;2024-01-06T06:58:51;7.85;;;4.03;;
39502;SDS011;26970;49.900;10.774;2024-01-06T07:01:17;10.52;;;3.65;;
39502;SDS011;26970;49.900;10.774;2024-01-06T07:03:43;10.82;;;4.00;;
39502;SDS011;26970;49.900;10.774;2024-01-06T07:06:08;5.60;;;3.45;;
39502;SDS011;26970;49.900;10.774;2024-01-06T07:08:37;9.68;;;3.85;;
39502;SDS011;26970;49.900;10.774;2024-01-06T07:11:03;8.65;;;3.78;;
39502;SDS011;26970;49.900;10.774;2024-01-06T07:13:29;6.47;;;3.47;;
39502;SDS011;26970;49.900;10.774;2024-01-06T07:15:54;6.38;;;3.33;;
39502;SDS011;26970;49.900;10.774;2024-01-06T07:18:20;6.55;;;3.33;;
39502;SDS011;26970;49.900;10.774;2024-01-06T07:20:48;10.25;;;4.10;;
39502;SDS011;26970;49.900;10.774;2024-01-06T07:23:13;9.32;;;4.07;;
39502;SDS011;26970;49.900;10.774;2024-01-06T07:25:39;12.25;;;3.83;;
39502;SDS011;26970;49.900;10.774;2024-01-06T07:28:05;10.80;;;3.83;;
39502;SDS011;26970;49.900;10.774;2024-01-06T07:30:33;8.95;;;3.70;;
39502;SDS011;26970;49.900;10.774;2024-01-06T07:32:58;7.43;;;3.33;;
39502;SDS011;26970;49.900;10.774;2024-01-06T07:35:24;8.23;;;3.90;;
39502;SDS011;26970;49.900;10.774;2024-01-06T07:37:49;7.28;;;3.42;;
39502;SDS011;26970;49.900;10.774;2024-01-06T07:40:15;5.72;;;3.25;;
39502;SDS011;26970;49.900;10.774;2024-01-06T07:42:41;6.45;;;3.53;;
39502;SDS011;26970;49.900;10.774;2024-01-06T07:45:07;6.47;;;3.30;;
39502;SDS011;26970;49.900;10.774;2024-01-06T07:47:33;8.77;;;3.67;;
39502;SDS011;26970;49.900;10.774;2024-01-06T07:49:58;13.02;;;9.15;;
39502;SDS011;26970;49.900;10.774;2024-01-06T07:52:24;8.00;;;5.05;;
39502;SDS011;26970;49.900;10.774;2024-01-06T07:54:50;9.50;;;4.20;;
39502;SDS011;26970;49.900;10.774;2024-01-06T07:57:15;5.25;;;3.33;;
39502;SDS011;26970;49.900;10.774;2024-01-06T07:59:41;8.07;;;3.67;;
39502;SDS011;26970;49.900;10.774;2024-01-06T08:02:06;8.40;;;4.22;;
39502;SDS011;26970;49.900;10.774;2024-01-06T08:04:32;8.18;;;4.82;;
39502;SDS011;26970;49.900;10.774;2024-01-06T08:06:57;6.65;;;3.55;;
39502;SDS011;26970;49.900;10.774;2024-01-06T08:09:23;5.50;;;3.50;;
39502;SDS011;26970;49.900;10.774;2024-01-06T08:11:49;11.43;;;3.97;;
39502;SDS011;26970;49.900;10.774;2024-01-06T08:14:14;6.40;;;4.07;;
39502;SDS011;26970;49.900;10.774;2024-01-06T08:16:42;7.03;;;3.53;;
39502;SDS011;26970;49.900;10.774;2024-01-06T08:19:08;5.28;;;3.42;;
39502;SDS011;26970;49.900;10.774;2024-01-06T08:21:34;5.53;;;3.08;;
39502;SDS011;26970;49.900;10.774;2024-01-06T08:24:00;7.35;;;3.38;;
39502;SDS011;26970;49.900;10.774;2024-01-06T08:26:25;6.50;;;3.22;;
39502;SDS011;26970;49.900;10.774;2024-01-06T08:28:51;11.35;;;4.60;;
39502;SDS011;26970;49.900;10.774;2024-01-06T08:31:17;10.57;;;7.57;;
39502;SDS011;26970;49.900;10.774;2024-01-06T08:33:43;10.25;;;5.63;;
39502;SDS011;26970;49.900;10.774;2024-01-06T08:36:08;13.45;;;5.28;;
39502;SDS011;26970;49.900;10.774;2024-01-06T08:38:34;10.50;;;4.90;;
39502;SDS011;26970;49.900;10.774;2024-01-06T08:41:00;28.00;;;12.90;;
39502;SDS011;26970;49.900;10.774;2024-01-06T08:43:27;17.67;;;9.50;;
39502;SDS011;26970;49.900;10.774;2024-01-06T08:45:52;10.68;;;6.57;;
39502;SDS011;26970;49.900;10.774;2024-01-06T08:48:18;12.35;;;7.50;;
39502;SDS011;26970;49.900;10.774;2024-01-06T08:50:44;13.00;;;4.88;;
39502;SDS011;26970;49.900;10.774;2024-01-06T08:53:10;7.85;;;4.15;;
39502;SDS011;26970;49.900;10.774;2024-01-06T08:55:36;14.10;;;6.10;;
39502;SDS011;26970;49.900;10.774;2024-01-06T08:58:02;8.85;;;4.10;;
39502;SDS011;26970;49.900;10.774;2024-01-06T09:00:27;7.50;;;4.32;;
39502;SDS011;26970;49.900;10.774;2024-01-06T09:02:53;9.52;;;4.63;;
39502;SDS011;26970;49.900;10.774;2024-01-06T09:05:18;9.60;;;6.20;;
39502;SDS011;26970;49.900;10.774;2024-01-06T09:07:44;11.02;;;6.85;;
39502;SDS011;26970;49.900;10.774;2024-01-06T09:10:14;12.25;;;7.65;;
39502;SDS011;26970;49.900;10.774;2024-01-06T09:12:41;8.20;;;4.88;;
39502;SDS011;26970;49.900;10.774;2024-01-06T09:15:07;10.18;;;4.70;;
39502;SDS011;26970;49.900;10.774;2024-01-06T09:17:32;8.43;;;4.70;;
39502;SDS011;26970;49.900;10.774;2024-01-06T09:19:59;10.88;;;5.00;;
39502;SDS011;26970;49.900;10.774;2024-01-06T09:22:25;8.48;;;4.10;;
39502;SDS011;26970;49.900;10.774;2024-01-06T09:24:50;7.60;;;3.83;;
39502;SDS011;26970;49.900;10.774;2024-01-06T09:27:17;7.95;;;4.10;;
39502;SDS011;26970;49.900;10.774;2024-01-06T09:29:43;6.60;;;4.38;;
39502;SDS011;26970;49.900;10.774;2024-01-06T09:32:09;6.78;;;4.10;;
39502;SDS011;26970;49.900;10.774;2024-01-06T09:34:34;11.18;;;4.93;;
39502;SDS011;26970;49.900;10.774;2024-01-06T09:37:00;10.63;;;5.15;;
39502;SDS011;26970;49.900;10.774;2024-01-06T09:39:25;11.60;;;5.10;;
39502;SDS011;26970;49.900;10.774;2024-01-06T09:41:51;7.70;;;4.45;;
39502;SDS011;26970;49.900;10.774;2024-01-06T09:44:16;12.10;;;4.97;;
39502;SDS011;26970;49.900;10.774;2024-01-06T09:46:43;13.00;;;5.68;;
39502;SDS011;26970;49.900;10.774;2024-01-06T09:49:09;13.90;;;7.32;;
39502;SDS011;26970;49.900;10.774;2024-01-06T09:51:39;18.67;;;8.27;;
39502;SDS011;26970;49.900;10.774;2024-01-06T09:54:05;10.57;;;5.15;;
39502;SDS011;26970;49.900;10.774;2024-01-06T09:56:33;8.20;;;5.00;;
39502;SDS011;26970;49.900;10.774;2024-01-06T09:58:59;11.07;;;5.43;;
39502;SDS011;26970;49.900;10.774;2024-01-06T10:01:27;13.20;;;6.47;;
39502;SDS011;26970;49.900;10.774;2024-01-06T10:03:52;11.18;;;5.65;;
39502;SDS011;26970;49.900;10.774;2024-01-06T10:06:18;15.95;;;8.80;;
39502;SDS011;26970;49.900;10.774;2024-01-06T10:08:48;11.20;;;5.72;;
39502;SDS011;26970;49.900;10.774;2024-01-06T10:11:15;9.35;;;5.88;;
39502;SDS011;26970;49.900;10.774;2024-01-06T10:13:40;16.30;;;6.43;;
39502;SDS011;26970;49.900;10.774;2024-01-06T10:16:06;17.45;;;8.45;;
39502;SDS011;26970;49.900;10.774;2024-01-06T10:18:32;13.45;;;6.30;;
39502;SDS011;26970;49.900;10.774;2024-01-06T10:21:00;9.20;;;4.95;;
39502;SDS011;26970;49.900;10.774;2024-01-06T10:23:28;9.48;;;4.43;;
39502;SDS011;26970;49.900;10.774;2024-01-06T10:25:54;9.43;;;4.72;;
39502;SDS011;26970;49.900;10.774;2024-01-06T10:28:20;8.30;;;4.30;;
39502;SDS011;26970;49.900;10.774;2024-01-06T10:30:47;9.75;;;4.72;;
39502;SDS011;26970;49.900;10.774;2024-01-06T10:33:14;9.98;;;4.55;;
39502;SDS011;26970;49.900;10.774;2024-01-06T10:35:40;10.05;;;4.72;;
39502;SDS011;26970;49.900;10.774;2024-01-06T10:38:06;9.13;;;5.03;;
39502;SDS011;26970;49.900;10.774;2024-01-06T10:40:32;11.05;;;5.45;;
39502;SDS011;26970;49.900;10.774;2024-01-06T10:42:58;13.15;;;6.10;;
39502;SDS011;26970;49.900;10.774;2024-01-06T10:45:25;13.77;;;5.57;;
39502;SDS011;26970;49.900;10.774;2024-01-06T10:47:52;16.38;;;5.32;;
39502;SDS011;26970;49.900;10.774;2024-01-06T10:50:19;9.88;;;5.05;;
39502;SDS011;26970;49.900;10.774;2024-01-06T10:52:46;9.55;;;5.60;;
39502;SDS011;26970;49.900;10.774;2024-01-06T10:55:13;17.92;;;7.95;;
39502;SDS011;26970;49.900;10.774;2024-01-06T10:57:42;15.27;;;6.45;;
39502;SDS011;26970;49.900;10.774;2024-01-06T11:00:09;9.68;;;5.55;;
39502;SDS011;26970;49.900;10.774;2024-01-06T11:02:35;13.50;;;6.70;;
39502;SDS011;26970;49.900;10.774;2024-01-06T11:05:02;22.77;;;15.93;;
39502;SDS011;26970;49.900;10.774;2024-01-06T11:07:28;25.88;;;16.45;;
39502;SDS011;26970;49.900;10.774;2024-01-06T11:09:57;11.98;;;7.78;;
39502;SDS011;26970;49.900;10.774;2024-01-06T11:12:27;14.13;;;6.07;;
39502;SDS011;26970;49.900;10.774;2024-01-06T11:14:53;9.85;;;5.10;;
39502;SDS011;26970;49.900;10.774;2024-01-06T11:20:23;10.80;;;5.18;;
39502;SDS011;26970;49.900;10.774;2024-01-06T11:22:50;13.15;;;6.97;;
39502;SDS011;26970;49.900;10.774;2024-01-06T11:25:20;14.43;;;6.57;;
39502;SDS011;26970;49.900;10.774;2024-01-06T11:27:47;10.57;;;6.25;;
39502;SDS011;26970;49.900;10.774;2024-01-06T11:30:24;11.13;;;6.18;;
39502;SDS011;26970;49.900;10.774;2024-01-06T11:32:51;11.80;;;6.20;;
39502;SDS011;26970;49.900;10.774;2024-01-06T11:35:18;9.80;;;4.78;;
39502;SDS011;26970;49.900;10.774;2024-01-06T11:42:43;10.57;;;5.43;;
39502;SDS011;26970;49.900;10.774;2024-01-06T11:45:10;9.25;;;4.78;;
39502;SDS011;26970;49.900;10.774;2024-01-06T11:47:37;8.73;;;4.47;;
39502;SDS011;26970;49.900;10.774;2024-01-06T11:50:04;7.35;;;3.80;;
39502;SDS011;26970;49.900;10.774;2024-01-06T11:52:31;8.35;;;4.63;;
39502;SDS011;26970;49.900;10.774;2024-01-06T11:54:57;10.07;;;4.20;;
39502;SDS011;26970;49.900;10.774;2024-01-06T11:57:24;7.40;;;4.07;;
39502;SDS011;26970;49.900;10.774;2024-01-06T11:59:51;11.45;;;4.88;;
39502;SDS011;26970;49.900;10.774;2024-01-06T12:02:17;9.52;;;4.30;;
39502;SDS011;26970;49.900;10.774;2024-01-06T12:04:47;6.90;;;4.18;;
39502;SDS011;26970;49.900;10.774;2024-01-06T12:07:17;7.65;;;4.00;;
39502;SDS011;26970;49.900;10.774;2024-01-06T12:09:44;9.23;;;4.40;;
39502;SDS011;26970;49.900;10.774;2024-01-06T12:12:10;10.35;;;5.30;;
39502;SDS011;26970;49.900;10.774;2024-01-06T12:14:38;10.93;;;5.78;;
39502;SDS011;26970;49.900;10.774;2024-01-06T12:17:07;9.73;;;6.00;;
39502;SDS011;26970;49.900;10.774;2024-01-06T12:19:33;9.77;;;5.22;;
39502;SDS011;26970;49.900;10.774;2024-01-06T12:21:58;8.57;;;5.10;;
39502;SDS011;26970;49.900;10.774;2024-01-06T12:24:26;11.57;;;5.45;;
39502;SDS011;26970;49.900;10.774;2024-01-06T12:26:52;12.15;;;5.72;;
39502;SDS011;26970;49.900;10.774;2024-01-06T12:29:19;8.93;;;4.63;;
39502;SDS011;26970;49.900;10.774;2024-01-06T12:31:46;11.10;;;5.75;;
39502;SDS011;26970;49.900;10.774;2024-01-06T12:34:11;11.68;;;5.45;;
39502;SDS011;26970;49.900;10.774;2024-01-06T12:36:37;10.02;;;5.15;;
39502;SDS011;26970;49.900;10.774;2024-01-06T12:39:04;7.65;;;4.60;;
39502;SDS011;26970;49.900;10.774;2024-01-06T12:41:30;10.20;;;5.70;;
39502;SDS011;26970;49.900;10.774;2024-01-06T12:43:58;13.43;;;5.65;;
39502;SDS011;26970;49.900;10.774;2024-01-06T12:46:25;11.68;;;6.07;;
39502;SDS011;26970;49.900;10.774;2024-01-06T12:48:51;14.45;;;5.88;;
39502;SDS011;26970;49.900;10.774;2024-01-06T12:51:17;10.73;;;5.20;;
39502;SDS011;26970;49.900;10.774;2024-01-06T12:53:42;12.43;;;6.10;;
39502;SDS011;26970;49.900;10.774;2024-01-06T12:56:08;8.80;;;5.00;;
39502;SDS011;26970;49.900;10.774;2024-01-06T12:58:33;9.82;;;5.15;;
39502;SDS011;26970;49.900;10.774;2024-01-06T13:00:59;9.35;;;4.88;;
39502;SDS011;26970;49.900;10.774;2024-01-06T13:03:26;10.05;;;4.95;;
39502;SDS011;26970;49.900;10.774;2024-01-06T13:05:51;8.73;;;5.53;;
39502;SDS011;26970;49.900;10.774;2024-01-06T13:08:17;14.50;;;5.70;;
39502;SDS011;26970;49.900;10.774;2024-01-06T13:10:42;14.30;;;6.53;;
39502;SDS011;26970;49.900;10.774;2024-01-06T13:13:08;13.88;;;7.10;;
39502;SDS011;26970;49.900;10.774;2024-01-06T13:15:34;16.88;;;6.40;;
39502;SDS011;26970;49.900;10.774;2024-01-06T13:17:59;8.63;;;4.80;;
39502;SDS011;26970;49.900;10.774;2024-01-06T13:20:25;11.23;;;6.18;;
39502;SDS011;26970;49.900;10.774;2024-01-06T13:22:50;10.52;;;4.93;;
39502;SDS011;26970;49.900;10.774;2024-01-06T13:25:16;9.70;;;5.63;;
39502;SDS011;26970;49.900;10.774;2024-01-06T13:27:42;11.13;;;5.35;;
39502;SDS011;26970;49.900;10.774;2024-01-06T13:30:08;15.23;;;5.88;;
39502;SDS011;26970;49.900;10.774;2024-01-06T13:32:34;15.38;;;6.00;;
39502;SDS011;26970;49.900;10.774;2024-01-06T13:34:59;10.75;;;5.47;;
39502;SDS011;26970;49.900;10.774;2024-01-06T13:37:29;14.40;;;6.30;;
39502;SDS011;26970;49.900;10.774;2024-01-06T13:39:56;14.40;;;6.18;;
39502;SDS011;26970;49.900;10.774;2024-01-06T13:42:21;8.75;;;5.90;;
39502;SDS011;26970;49.900;10.774;2024-01-06T13:44:47;12.40;;;5.68;;
39502;SDS011;26970;49.900;10.774;2024-01-06T13:47:15;18.23;;;7.63;;
39502;SDS011;26970;49.900;10.774;2024-01-06T13:49:41;12.95;;;6.10;;
39502;SDS011;26970;49.900;10.774;2024-01-06T13:52:07;17.25;;;7.13;;
39502;SDS011;26970;49.900;10.774;2024-01-06T13:54:33;19.10;;;7.88;;
39502;SDS011;26970;49.900;10.774;2024-01-06T13:56:59;13.00;;;6.22;;
39502;SDS011;26970;49.900;10.774;2024-01-06T13:59:25;8.98;;;4.75;;
39502;SDS011;26970;49.900;10.774;2024-01-06T14:01:50;12.52;;;5.65;;
39502;SDS011;26970;49.900;10.774;2024-01-06T14:04:16;11.00;;;5.57;;
39502;SDS011;26970;49.900;10.774;2024-01-06T14:06:42;9.35;;;4.60;;
39502;SDS011;26970;49.900;10.774;2024-01-06T14:09:07;9.23;;;5.43;;
39502;SDS011;26970;49.900;10.774;2024-01-06T14:11:33;10.48;;;5.55;;
39502;SDS011;26970;49.900;10.774;2024-01-06T14:13:59;11.15;;;6.45;;
39502;SDS011;26970;49.900;10.774;2024-01-06T14:16:25;13.82;;;6.30;;
39502;SDS011;26970;49.900;10.774;2024-01-06T14:18:51;11.45;;;6.68;;
39502;SDS011;26970;49.900;10.774;2024-01-06T14:21:17;12.88;;;5.82;;
39502;SDS011;26970;49.900;10.774;2024-01-06T14:23:44;10.27;;;5.90;;
39502;SDS011;26970;49.900;10.774;2024-01-06T14:26:14;12.43;;;6.47;;
39502;SDS011;26970;49.900;10.774;2024-01-06T14:28:46;10.23;;;6.53;;
39502;SDS011;26970;49.900;10.774;2024-01-06T14:31:12;11.57;;;6.50;;
39502;SDS011;26970;49.900;10.774;2024-01-06T14:33:37;14.85;;;6.55;;
39502;SDS011;26970;49.900;10.774;2024-01-06T14:36:03;13.85;;;7.30;;